sensor_id;sensor_type;location;lat;lon;timestamp;P1;durP1;ratioP1;P2;durP2;ratioP2
14007;SDS011;61651;45.508;12.232;2024-01-16T00:02:49;86.78;;;74.38;;
14007;SDS011;61651;45.508;12.232;2024-01-16T00:05:51;103.17;;;82.53;;
14007;SDS011;61651;45.508;12.232;2024-01-16T00:08:53;97.47;;;78.07;;
14007;SDS011;61651;45.508;12.232;2024-01-16T00:11:56;93.80;;;74.63;;
14007;SDS011;61651;45.508;12.232;2024-01-16T00:14:59;92.07;;;74.67;;
14007;SDS011;61651;45.508;12.232;2024-01-16T00:18:01;94.07;;;75.87;;
14007;SDS011;61651;45.508;12.232;2024-01-16T00:21:04;94.53;;;73.83;;
14007;SDS011;61651;45.508;12.232;2024-01-16T00:24:06;88.70;;;73.10;;
14007;SDS011;61651;45.508;12.232;2024-01-16T00:27:08;88.77;;;73.03;;
14007;SDS011;61651;45.508;12.232;2024-01-16T00:30:12;86.07;;;71.10;;
14007;SDS011;61651;45.508;12.232;2024-01-16T00:33:14;83.33;;;70.20;;
14007;SDS011;61651;45.508;12.232;2024-01-16T00:36:16;87.13;;;71.87;;
14007;SDS011;61651;45.508;12.232;2024-01-16T00:39:19;89.17;;;72.77;;
14007;SDS011;61651;45.508;12.232;2024-01-16T00:42:21;86.50;;;71.23;;
14007;SDS011;61651;45.508;12.232;2024-01-16T00:45:24;85.60;;;70.00;;
14007;SDS011;61651;45.508;12.232;2024-01-16T00:48:26;83.90;;;68.17;;
14007;SDS011;61651;45.508;12.232;2024-01-16T00:51:28;85.67;;;68.30;;
14007;SDS011;61651;45.508;12.232;2024-01-16T00:54:30;87.90;;;69.73;;
14007;SDS011;61651;45.508;12.232;2024-01-16T00:57:33;82.07;;;67.90;;
14007;SDS011;61651;45.508;12.232;2024-01-16T01:00:36;78.77;;;67.93;;
14007;SDS011;61651;45.508;12.232;2024-01-16T01:03:38;83.97;;;70.03;;
14007;SDS011;61651;45.508;12.232;2024-01-16T01:06:40;89.57;;;69.27;;
14007;SDS011;61651;45.508;12.232;2024-01-16T01:09:42;82.50;;;68.10;;
14007;SDS011;61651;45.508;12.232;2024-01-16T01:12:44;80.80;;;67.83;;
14007;SDS011;61651;45.508;12.232;2024-01-16T01:15:48;82.80;;;67.00;;
14007;SDS011;61651;45.508;12.232;2024-01-16T01:18:50;81.20;;;65.53;;
14007;SDS011;61651;45.508;12.232;2024-01-16T01:21:52;79.10;;;64.23;;
14007;SDS011;61651;45.508;12.232;2024-01-16T01:24:54;83.50;;;66.20;;
14007;SDS011;61651;45.508;12.232;2024-01-16T01:27:56;84.13;;;70.47;;
14007;SDS011;61651;45.508;12.232;2024-01-16T01:30:59;80.03;;;65.03;;
14007;SDS011;61651;45.508;12.232;2024-01-16T01:34:01;96.57;;;72.73;;
14007;SDS011;61651;45.508;12.232;2024-01-16T01:37:06;87.87;;;68.40;;
14007;SDS011;61651;45.508;12.232;2024-01-16T01:40:08;86.20;;;71.10;;
14007;SDS011;61651;45.508;12.232;2024-01-16T01:43:22;87.90;;;70.37;;
14007;SDS011;61651;45.508;12.232;2024-01-16T01:46:26;82.27;;;66.40;;
14007;SDS011;61651;45.508;12.232;2024-01-16T01:49:30;82.87;;;67.50;;
14007;SDS011;61651;45.508;12.232;2024-01-16T01:52:33;87.33;;;66.23;;
14007;SDS011;61651;45.508;12.232;2024-01-16T01:55:35;79.00;;;66.20;;
14007;SDS011;61651;45.508;12.232;2024-01-16T01:58:37;87.70;;;65.37;;
14007;SDS011;61651;45.508;12.232;2024-01-16T02:01:41;83.33;;;65.63;;
14007;SDS011;61651;45.508;12.232;2024-01-16T02:04:44;80.43;;;65.57;;
14007;SDS011;61651;45.508;12.232;2024-01-16T02:07:46;80.03;;;64.80;;
14007;SDS011;61651;45.508;12.232;2024-01-16T02:10:49;80.20;;;64.03;;
14007;SDS011;61651;45.508;12.232;2024-01-16T02:13:51;81.90;;;64.83;;
14007;SDS011;61651;45.508;12.232;2024-01-16T02:16:55;80.90;;;64.63;;
14007;SDS011;61651;45.508;12.232;2024-01-16T02:19:57;74.77;;;60.40;;
14007;SDS011;61651;45.508;12.232;2024-01-16T02:22:59;85.40;;;64.90;;
14007;SDS011;61651;45.508;12.232;2024-01-16T02:26:05;81.50;;;66.97;;
14007;SDS011;61651;45.508;12.232;2024-01-16T02:29:07;85.90;;;69.70;;
14007;SDS011;61651;45.508;12.232;2024-01-16T02:32:10;83.97;;;66.00;;
14007;SDS011;61651;45.508;12.232;2024-01-16T02:35:13;82.93;;;67.60;;
14007;SDS011;61651;45.508;12.232;2024-01-16T02:38:15;84.83;;;68.20;;
14007;SDS011;61651;45.508;12.232;2024-01-16T02:41:19;84.27;;;67.87;;
14007;SDS011;61651;45.508;12.232;2024-01-16T02:44:21;89.50;;;70.90;;
14007;SDS011;61651;45.508;12.232;2024-01-16T02:47:23;79.63;;;67.47;;
14007;SDS011;61651;45.508;12.232;2024-01-16T02:50:25;85.20;;;69.47;;
14007;SDS011;61651;45.508;12.232;2024-01-16T02:53:27;82.40;;;63.93;;
14007;SDS011;61651;45.508;12.232;2024-01-16T02:56:31;82.90;;;65.83;;
14007;SDS011;61651;45.508;12.232;2024-01-16T02:59:33;79.00;;;64.43;;
14007;SDS011;61651;45.508;12.232;2024-01-16T03:02:35;75.47;;;62.47;;
14007;SDS011;61651;45.508;12.232;2024-01-16T03:05:37;79.90;;;61.73;;
14007;SDS011;61651;45.508;12.232;2024-01-16T03:08:39;79.57;;;63.00;;
14007;SDS011;61651;45.508;12.232;2024-01-16T03:11:42;84.90;;;64.87;;
14007;SDS011;61651;45.508;12.232;2024-01-16T03:14:44;76.23;;;63.53;;
14007;SDS011;61651;45.508;12.232;2024-01-16T03:17:47;83.10;;;66.33;;
14007;SDS011;61651;45.508;12.232;2024-01-16T03:20:49;83.10;;;67.63;;
14007;SDS011;61651;45.508;12.232;2024-01-16T03:23:51;87.43;;;67.60;;
14007;SDS011;61651;45.508;12.232;2024-01-16T03:26:54;86.77;;;69.77;;
14007;SDS011;61651;45.508;12.232;2024-01-16T03:29:56;82.83;;;64.90;;
14007;SDS011;61651;45.508;12.232;2024-01-16T03:32:58;80.43;;;67.07;;
14007;SDS011;61651;45.508;12.232;2024-01-16T03:36:00;83.43;;;63.73;;
14007;SDS011;61651;45.508;12.232;2024-01-16T03:39:03;81.50;;;64.30;;
14007;SDS011;61651;45.508;12.232;2024-01-16T03:42:07;82.83;;;64.60;;
14007;SDS011;61651;45.508;12.232;2024-01-16T03:45:09;81.63;;;64.37;;
14007;SDS011;61651;45.508;12.232;2024-01-16T03:48:11;81.67;;;64.87;;
14007;SDS011;61651;45.508;12.232;2024-01-16T03:51:14;78.57;;;63.60;;
14007;SDS011;61651;45.508;12.232;2024-01-16T03:54:18;76.03;;;60.03;;
14007;SDS011;61651;45.508;12.232;2024-01-16T03:57:21;73.63;;;60.33;;
14007;SDS011;61651;45.508;12.232;2024-01-16T04:00:24;79.73;;;62.37;;
14007;SDS011;61651;45.508;12.232;2024-01-16T04:03:26;78.03;;;65.30;;
14007;SDS011;61651;45.508;12.232;2024-01-16T04:06:28;82.37;;;64.33;;
14007;SDS011;61651;45.508;12.232;2024-01-16T04:09:32;78.00;;;64.90;;
14007;SDS011;61651;45.508;12.232;2024-01-16T04:12:36;79.70;;;65.27;;
14007;SDS011;61651;45.508;12.232;2024-01-16T04:15:38;74.30;;;60.50;;
14007;SDS011;61651;45.508;12.232;2024-01-16T04:18:41;79.10;;;59.67;;
14007;SDS011;61651;45.508;12.232;2024-01-16T04:21:44;67.77;;;56.83;;
14007;SDS011;61651;45.508;12.232;2024-01-16T04:24:46;69.60;;;54.50;;
14007;SDS011;61651;45.508;12.232;2024-01-16T04:27:49;66.70;;;55.50;;
14007;SDS011;61651;45.508;12.232;2024-01-16T04:30:52;63.07;;;53.43;;
14007;SDS011;61651;45.508;12.232;2024-01-16T04:33:54;60.87;;;51.13;;
14007;SDS011;61651;45.508;12.232;2024-01-16T04:36:56;55.77;;;43.80;;
14007;SDS011;61651;45.508;12.232;2024-01-16T04:39:58;57.33;;;46.13;;
14007;SDS011;61651;45.508;12.232;2024-01-16T04:43:01;53.53;;;42.97;;
14007;SDS011;61651;45.508;12.232;2024-01-16T04:46:04;51.07;;;41.87;;
14007;SDS011;61651;45.508;12.232;2024-01-16T04:49:06;55.03;;;43.50;;
14007;SDS011;61651;45.508;12.232;2024-01-16T04:52:08;49.33;;;39.00;;
14007;SDS011;61651;45.508;12.232;2024-01-16T04:55:10;51.47;;;40.30;;
14007;SDS011;61651;45.508;12.232;2024-01-16T04:58:13;49.13;;;38.07;;
14007;SDS011;61651;45.508;12.232;2024-01-16T05:01:15;45.13;;;36.93;;
14007;SDS011;61651;45.508;12.232;2024-01-16T05:04:17;43.87;;;36.97;;
14007;SDS011;61651;45.508;12.232;2024-01-16T05:07:20;41.70;;;33.57;;
14007;SDS011;61651;45.508;12.232;2024-01-16T05:10:24;39.03;;;32.07;;
14007;SDS011;61651;45.508;12.232;2024-01-16T05:13:27;37.87;;;30.30;;
14007;SDS011;61651;45.508;12.232;2024-01-16T05:16:29;34.60;;;29.60;;
14007;SDS011;61651;45.508;12.232;2024-01-16T05:19:34;34.30;;;27.63;;
14007;SDS011;61651;45.508;12.232;2024-01-16T05:22:36;33.03;;;28.20;;
14007;SDS011;61651;45.508;12.232;2024-01-16T05:25:39;34.03;;;27.27;;
14007;SDS011;61651;45.508;12.232;2024-01-16T05:28:42;28.80;;;24.77;;
14007;SDS011;61651;45.508;12.232;2024-01-16T05:31:45;29.17;;;25.17;;
14007;SDS011;61651;45.508;12.232;2024-01-16T05:34:49;28.10;;;22.33;;
14007;SDS011;61651;45.508;12.232;2024-01-16T05:37:51;23.63;;;20.87;;
14007;SDS011;61651;45.508;12.232;2024-01-16T05:40:53;23.40;;;20.50;;
14007;SDS011;61651;45.508;12.232;2024-01-16T05:43:57;22.60;;;18.83;;
14007;SDS011;61651;45.508;12.232;2024-01-16T05:46:59;21.40;;;17.63;;
14007;SDS011;61651;45.508;12.232;2024-01-16T05:50:01;20.57;;;18.13;;
14007;SDS011;61651;45.508;12.232;2024-01-16T05:53:05;19.67;;;16.30;;
14007;SDS011;61651;45.508;12.232;2024-01-16T05:56:07;16.87;;;14.97;;
14007;SDS011;61651;45.508;12.232;2024-01-16T05:59:10;16.53;;;14.80;;
14007;SDS011;61651;45.508;12.232;2024-01-16T06:02:13;15.83;;;14.13;;
14007;SDS011;61651;45.508;12.232;2024-01-16T06:05:15;16.93;;;13.47;;
14007;SDS011;61651;45.508;12.232;2024-01-16T06:08:17;16.87;;;14.10;;
14007;SDS011;61651;45.508;12.232;2024-01-16T06:11:23;14.73;;;12.87;;
14007;SDS011;61651;45.508;12.232;2024-01-16T06:14:32;14.07;;;12.57;;
14007;SDS011;61651;45.508;12.232;2024-01-16T06:17:34;13.47;;;12.03;;
14007;SDS011;61651;45.508;12.232;2024-01-16T06:20:36;12.40;;;11.10;;
14007;SDS011;61651;45.508;12.232;2024-01-16T06:23:38;13.03;;;11.73;;
14007;SDS011;61651;45.508;12.232;2024-01-16T06:26:40;12.47;;;11.27;;
14007;SDS011;61651;45.508;12.232;2024-01-16T06:29:44;12.80;;;11.20;;
14007;SDS011;61651;45.508;12.232;2024-01-16T06:32:47;12.70;;;10.83;;
14007;SDS011;61651;45.508;12.232;2024-01-16T06:35:49;12.77;;;10.60;;
14007;SDS011;61651;45.508;12.232;2024-01-16T06:38:51;12.87;;;10.97;;
14007;SDS011;61651;45.508;12.232;2024-01-16T06:41:53;12.40;;;10.17;;
14007;SDS011;61651;45.508;12.232;2024-01-16T06:44:56;11.77;;;10.50;;
14007;SDS011;61651;45.508;12.232;2024-01-16T06:47:58;10.30;;;9.30;;
14007;SDS011;61651;45.508;12.232;2024-01-16T06:51:00;11.83;;;10.23;;
14007;SDS011;61651;45.508;12.232;2024-01-16T06:54:02;12.07;;;10.23;;
14007;SDS011;61651;45.508;12.232;2024-01-16T06:57:04;11.07;;;9.70;;
14007;SDS011;61651;45.508;12.232;2024-01-16T07:00:10;11.20;;;8.70;;
14007;SDS011;61651;45.508;12.232;2024-01-16T07:03:14;11.43;;;10.23;;
14007;SDS011;61651;45.508;12.232;2024-01-16T07:06:17;11.87;;;10.27;;
14007;SDS011;61651;45.508;12.232;2024-01-16T07:09:19;11.43;;;9.50;;
14007;SDS011;61651;45.508;12.232;2024-01-16T07:12:21;9.60;;;8.60;;
14007;SDS011;61651;45.508;12.232;2024-01-16T07:15:25;10.40;;;9.13;;
14007;SDS011;61651;45.508;12.232;2024-01-16T07:18:27;9.70;;;8.70;;
14007;SDS011;61651;45.508;12.232;2024-01-16T07:21:29;8.87;;;7.43;;
14007;SDS011;61651;45.508;12.232;2024-01-16T07:24:31;10.20;;;7.90;;
14007;SDS011;61651;45.508;12.232;2024-01-16T07:27:33;14.87;;;13.47;;
14007;SDS011;61651;45.508;12.232;2024-01-16T07:30:36;8.93;;;8.13;;
14007;SDS011;61651;45.508;12.232;2024-01-16T07:33:39;8.93;;;7.50;;
14007;SDS011;61651;45.508;12.232;2024-01-16T07:36:41;9.40;;;7.93;;
14007;SDS011;61651;45.508;12.232;2024-01-16T07:39:43;8.63;;;7.40;;
14007;SDS011;61651;45.508;12.232;2024-01-16T07:42:45;8.00;;;6.80;;
14007;SDS011;61651;45.508;12.232;2024-01-16T07:45:49;8.87;;;7.47;;
14007;SDS011;61651;45.508;12.232;2024-01-16T07:48:51;7.80;;;7.00;;
14007;SDS011;61651;45.508;12.232;2024-01-16T07:51:53;7.83;;;7.00;;
14007;SDS011;61651;45.508;12.232;2024-01-16T07:54:56;7.70;;;6.90;;
14007;SDS011;61651;45.508;12.232;2024-01-16T07:57:58;8.20;;;7.23;;
14007;SDS011;61651;45.508;12.232;2024-01-16T08:01:01;7.73;;;6.90;;
14007;SDS011;61651;45.508;12.232;2024-01-16T08:04:04;8.73;;;7.50;;
14007;SDS011;61651;45.508;12.232;2024-01-16T08:07:06;8.97;;;7.03;;
14007;SDS011;61651;45.508;12.232;2024-01-16T08:10:08;8.53;;;7.30;;
14007;SDS011;61651;45.508;12.232;2024-01-16T08:13:11;8.20;;;7.37;;
14007;SDS011;61651;45.508;12.232;2024-01-16T08:16:14;9.43;;;8.53;;
14007;SDS011;61651;45.508;12.232;2024-01-16T08:19:16;9.13;;;8.13;;
14007;SDS011;61651;45.508;12.232;2024-01-16T08:22:19;8.97;;;8.07;;
14007;SDS011;61651;45.508;12.232;2024-01-16T08:25:21;9.67;;;8.07;;
14007;SDS011;61651;45.508;12.232;2024-01-16T08:28:23;9.30;;;8.07;;
14007;SDS011;61651;45.508;12.232;2024-01-16T08:31:27;9.57;;;7.77;;
14007;SDS011;61651;45.508;12.232;2024-01-16T08:34:29;8.90;;;8.00;;
14007;SDS011;61651;45.508;12.232;2024-01-16T08:37:31;9.13;;;8.20;;
14007;SDS011;61651;45.508;12.232;2024-01-16T08:40:34;12.50;;;7.43;;
14007;SDS011;61651;45.508;12.232;2024-01-16T08:43:36;14.23;;;8.50;;
14007;SDS011;61651;45.508;12.232;2024-01-16T08:46:39;9.50;;;7.77;;
14007;SDS011;61651;45.508;12.232;2024-01-16T08:49:41;11.60;;;9.53;;
14007;SDS011;61651;45.508;12.232;2024-01-16T08:52:43;12.30;;;9.30;;
14007;SDS011;61651;45.508;12.232;2024-01-16T08:55:45;13.93;;;12.43;;
14007;SDS011;61651;45.508;12.232;2024-01-16T08:58:47;10.03;;;8.10;;
14007;SDS011;61651;45.508;12.232;2024-01-16T09:01:51;10.20;;;7.47;;
14007;SDS011;61651;45.508;12.232;2024-01-16T09:04:52;9.20;;;7.30;;
14007;SDS011;61651;45.508;12.232;2024-01-16T09:07:54;10.30;;;8.37;;
14007;SDS011;61651;45.508;12.232;2024-01-16T09:10:56;8.67;;;7.77;;
14007;SDS011;61651;45.508;12.232;2024-01-16T09:13:58;9.52;;;8.50;;
14007;SDS011;61651;45.508;12.232;2024-01-16T09:17:02;8.23;;;7.40;;
14007;SDS011;61651;45.508;12.232;2024-01-16T09:20:05;7.97;;;7.27;;
14007;SDS011;61651;45.508;12.232;2024-01-16T09:23:08;7.50;;;6.80;;
14007;SDS011;61651;45.508;12.232;2024-01-16T09:26:10;6.73;;;6.13;;
14007;SDS011;61651;45.508;12.232;2024-01-16T09:29:12;7.83;;;6.60;;
14007;SDS011;61651;45.508;12.232;2024-01-16T09:32:17;7.87;;;6.47;;
14007;SDS011;61651;45.508;12.232;2024-01-16T09:35:19;9.00;;;6.80;;
14007;SDS011;61651;45.508;12.232;2024-01-16T09:38:22;7.57;;;6.80;;
14007;SDS011;61651;45.508;12.232;2024-01-16T09:41:24;7.20;;;6.47;;
14007;SDS011;61651;45.508;12.232;2024-01-16T09:44:27;8.97;;;6.90;;
14007;SDS011;61651;45.508;12.232;2024-01-16T09:47:31;7.20;;;6.50;;
14007;SDS011;61651;45.508;12.232;2024-01-16T09:50:35;10.23;;;6.30;;
14007;SDS011;61651;45.508;12.232;2024-01-16T09:53:37;6.87;;;6.27;;
14007;SDS011;61651;45.508;12.232;2024-01-16T09:56:41;7.07;;;6.37;;
14007;SDS011;61651;45.508;12.232;2024-01-16T09:59:45;6.67;;;6.07;;
14007;SDS011;61651;45.508;12.232;2024-01-16T10:02:49;6.80;;;6.03;;
14007;SDS011;61651;45.508;12.232;2024-01-16T10:05:52;7.85;;;6.63;;
14007;SDS011;61651;45.508;12.232;2024-01-16T10:08:54;7.57;;;6.20;;
14007;SDS011;61651;45.508;12.232;2024-01-16T10:11:56;6.63;;;5.77;;
14007;SDS011;61651;45.508;12.232;2024-01-16T10:15:00;7.33;;;5.70;;
14007;SDS011;61651;45.508;12.232;2024-01-16T10:18:04;7.43;;;5.47;;
14007;SDS011;61651;45.508;12.232;2024-01-16T10:21:08;5.83;;;5.10;;
14007;SDS011;61651;45.508;12.232;2024-01-16T10:24:22;7.10;;;5.77;;
14007;SDS011;61651;45.508;12.232;2024-01-16T10:27:25;6.53;;;5.93;;
14007;SDS011;61651;45.508;12.232;2024-01-16T10:30:30;8.13;;;5.30;;
14007;SDS011;61651;45.508;12.232;2024-01-16T10:33:34;5.07;;;4.57;;
14007;SDS011;61651;45.508;12.232;2024-01-16T10:36:37;6.40;;;5.07;;
14007;SDS011;61651;45.508;12.232;2024-01-16T10:39:39;5.30;;;4.80;;
14007;SDS011;61651;45.508;12.232;2024-01-16T10:42:41;5.03;;;4.53;;
14007;SDS011;61651;45.508;12.232;2024-01-16T10:45:44;6.03;;;4.90;;
14007;SDS011;61651;45.508;12.232;2024-01-16T10:48:58;6.10;;;4.97;;
14007;SDS011;61651;45.508;12.232;2024-01-16T10:52:01;6.60;;;5.20;;
14007;SDS011;61651;45.508;12.232;2024-01-16T10:55:03;4.63;;;4.23;;
14007;SDS011;61651;45.508;12.232;2024-01-16T10:58:07;4.70;;;4.30;;
14007;SDS011;61651;45.508;12.232;2024-01-16T11:01:12;5.47;;;4.97;;
14007;SDS011;61651;45.508;12.232;2024-01-16T11:04:18;5.90;;;5.00;;
14007;SDS011;61651;45.508;12.232;2024-01-16T11:07:21;10.37;;;6.90;;
14007;SDS011;61651;45.508;12.232;2024-01-16T11:10:26;29.70;;;17.70;;
14007;SDS011;61651;45.508;12.232;2024-01-16T11:13:29;13.47;;;9.50;;
14007;SDS011;61651;45.508;12.232;2024-01-16T11:16:34;9.30;;;6.77;;
14007;SDS011;61651;45.508;12.232;2024-01-16T11:19:38;9.90;;;5.67;;
14007;SDS011;61651;45.508;12.232;2024-01-16T11:22:41;6.23;;;4.67;;
14007;SDS011;61651;45.508;12.232;2024-01-16T11:25:44;5.13;;;4.20;;
14007;SDS011;61651;45.508;12.232;2024-01-16T11:28:47;4.13;;;3.73;;
14007;SDS011;61651;45.508;12.232;2024-01-16T11:31:50;4.77;;;4.17;;
14007;SDS011;61651;45.508;12.232;2024-01-16T11:34:56;6.30;;;4.27;;
14007;SDS011;61651;45.508;12.232;2024-01-16T11:38:02;4.87;;;3.50;;
14007;SDS011;61651;45.508;12.232;2024-01-16T11:41:05;4.00;;;3.60;;
14007;SDS011;61651;45.508;12.232;2024-01-16T11:44:07;4.57;;;3.47;;
14007;SDS011;61651;45.508;12.232;2024-01-16T11:47:43;4.97;;;3.30;;
14007;SDS011;61651;45.508;12.232;2024-01-16T11:50:46;5.07;;;3.70;;
14007;SDS011;61651;45.508;12.232;2024-01-16T11:53:49;4.40;;;3.40;;
14007;SDS011;61651;45.508;12.232;2024-01-16T12:00:44;3.60;;;3.10;;
14007;SDS011;61651;45.508;12.232;2024-01-16T12:04:01;3.60;;;3.30;;
14007;SDS011;61651;45.508;12.232;2024-01-16T12:07:05;3.80;;;3.50;;
14007;SDS011;61651;45.508;12.232;2024-01-16T12:10:07;4.07;;;3.70;;
14007;SDS011;61651;45.508;12.232;2024-01-16T12:13:09;3.30;;;3.00;;
14007;SDS011;61651;45.508;12.232;2024-01-16T12:16:18;3.40;;;3.10;;
14007;SDS011;61651;45.508;12.232;2024-01-16T12:19:20;3.37;;;3.07;;
14007;SDS011;61651;45.508;12.232;2024-01-16T12:22:24;4.10;;;3.30;;
14007;SDS011;61651;45.508;12.232;2024-01-16T12:25:26;5.43;;;3.27;;
14007;SDS011;61651;45.508;12.232;2024-01-16T12:28:29;3.30;;;3.00;;
14007;SDS011;61651;45.508;12.232;2024-01-16T12:31:31;4.73;;;3.20;;
14007;SDS011;61651;45.508;12.232;2024-01-16T12:34:33;2.90;;;2.70;;
14007;SDS011;61651;45.508;12.232;2024-01-16T12:37:37;3.10;;;2.80;;
14007;SDS011;61651;45.508;12.232;2024-01-16T12:40:40;3.47;;;3.17;;
14007;SDS011;61651;45.508;12.232;2024-01-16T12:43:43;3.70;;;3.13;;
14007;SDS011;61651;45.508;12.232;2024-01-16T12:46:46;4.03;;;3.00;;
14007;SDS011;61651;45.508;12.232;2024-01-16T12:49:56;4.23;;;3.00;;
14007;SDS011;61651;45.508;12.232;2024-01-16T12:53:02;5.50;;;3.00;;
14007;SDS011;61651;45.508;12.232;2024-01-16T12:56:06;3.27;;;2.97;;
14007;SDS011;61651;45.508;12.232;2024-01-16T12:59:09;3.50;;;3.03;;
14007;SDS011;61651;45.508;12.232;2024-01-16T13:02:19;3.80;;;3.47;;
14007;SDS011;61651;45.508;12.232;2024-01-16T13:05:22;3.07;;;2.77;;
14007;SDS011;61651;45.508;12.232;2024-01-16T13:08:27;4.83;;;3.33;;
14007;SDS011;61651;45.508;12.232;2024-01-16T13:11:29;3.57;;;3.27;;
14007;SDS011;61651;45.508;12.232;2024-01-16T13:14:31;3.30;;;3.00;;
14007;SDS011;61651;45.508;12.232;2024-01-16T13:17:33;3.83;;;3.37;;
14007;SDS011;61651;45.508;12.232;2024-01-16T13:20:36;4.17;;;3.17;;
14007;SDS011;61651;45.508;12.232;2024-01-16T13:23:39;3.20;;;2.90;;
14007;SDS011;61651;45.508;12.232;2024-01-16T13:26:41;4.10;;;3.17;;
14007;SDS011;61651;45.508;12.232;2024-01-16T13:29:43;3.67;;;3.37;;
14007;SDS011;61651;45.508;12.232;2024-01-16T13:32:45;4.60;;;3.27;;
14007;SDS011;61651;45.508;12.232;2024-01-16T13:35:48;4.37;;;3.70;;
14007;SDS011;61651;45.508;12.232;2024-01-16T13:38:51;5.43;;;3.33;;
14007;SDS011;61651;45.508;12.232;2024-01-16T13:41:53;3.77;;;3.20;;
14007;SDS011;61651;45.508;12.232;2024-01-16T13:44:55;3.50;;;3.20;;
14007;SDS011;61651;45.508;12.232;2024-01-16T13:47:57;4.73;;;3.23;;
14007;SDS011;61651;45.508;12.232;2024-01-16T13:51:01;6.67;;;3.50;;
14007;SDS011;61651;45.508;12.232;2024-01-16T13:54:05;4.47;;;3.33;;
14007;SDS011;61651;45.508;12.232;2024-01-16T13:57:07;3.60;;;3.30;;
14007;SDS011;61651;45.508;12.232;2024-01-16T14:00:10;5.67;;;3.40;;
14007;SDS011;61651;45.508;12.232;2024-01-16T14:03:14;3.80;;;3.33;;
14007;SDS011;61651;45.508;12.232;2024-01-16T14:06:17;5.80;;;3.80;;
14007;SDS011;61651;45.508;12.232;2024-01-16T14:09:21;6.00;;;4.20;;
14007;SDS011;61651;45.508;12.232;2024-01-16T14:12:23;7.37;;;4.27;;
14007;SDS011;61651;45.508;12.232;2024-01-16T14:15:26;5.03;;;3.80;;
14007;SDS011;61651;45.508;12.232;2024-01-16T14:18:28;5.57;;;3.63;;
14007;SDS011;61651;45.508;12.232;2024-01-16T14:21:30;6.67;;;4.13;;
14007;SDS011;61651;45.508;12.232;2024-01-16T14:24:34;7.07;;;4.30;;
14007;SDS011;61651;45.508;12.232;2024-01-16T14:27:38;7.43;;;4.93;;
14007;SDS011;61651;45.508;12.232;2024-01-16T14:30:40;5.57;;;5.00;;
14007;SDS011;61651;45.508;12.232;2024-01-16T14:33:43;5.60;;;4.53;;
14007;SDS011;61651;45.508;12.232;2024-01-16T14:36:45;5.73;;;5.13;;
14007;SDS011;61651;45.508;12.232;2024-01-16T14:39:49;7.33;;;5.67;;
14007;SDS011;61651;45.508;12.232;2024-01-16T14:42:51;8.27;;;6.73;;
14007;SDS011;61651;45.508;12.232;2024-01-16T14:45:54;6.10;;;4.80;;
14007;SDS011;61651;45.508;12.232;2024-01-16T14:48:58;5.17;;;3.83;;
14007;SDS011;61651;45.508;12.232;2024-01-16T14:52:00;5.17;;;3.77;;
14007;SDS011;61651;45.508;12.232;2024-01-16T14:55:04;4.17;;;3.67;;
14007;SDS011;61651;45.508;12.232;2024-01-16T14:58:08;7.83;;;4.97;;
14007;SDS011;61651;45.508;12.232;2024-01-16T15:01:10;5.93;;;4.10;;
14007;SDS011;61651;45.508;12.232;2024-01-16T15:04:12;6.60;;;4.60;;
14007;SDS011;61651;45.508;12.232;2024-01-16T15:07:14;6.53;;;4.77;;
14007;SDS011;61651;45.508;12.232;2024-01-16T15:10:18;5.20;;;4.70;;
14007;SDS011;61651;45.508;12.232;2024-01-16T15:13:20;6.37;;;4.97;;
14007;SDS011;61651;45.508;12.232;2024-01-16T15:16:23;5.07;;;4.60;;
14007;SDS011;61651;45.508;12.232;2024-01-16T15:19:26;5.57;;;4.90;;
14007;SDS011;61651;45.508;12.232;2024-01-16T15:22:27;6.07;;;5.47;;
14007;SDS011;61651;45.508;12.232;2024-01-16T15:25:31;5.17;;;4.63;;
14007;SDS011;61651;45.508;12.232;2024-01-16T15:28:33;6.73;;;4.93;;
14007;SDS011;61651;45.508;12.232;2024-01-16T15:31:36;9.57;;;5.03;;
14007;SDS011;61651;45.508;12.232;2024-01-16T15:34:38;6.57;;;4.43;;
14007;SDS011;61651;45.508;12.232;2024-01-16T15:37:40;6.77;;;4.53;;
14007;SDS011;61651;45.508;12.232;2024-01-16T15:40:45;6.00;;;4.40;;
14007;SDS011;61651;45.508;12.232;2024-01-16T15:43:47;5.03;;;4.23;;
14007;SDS011;61651;45.508;12.232;2024-01-16T15:46:56;4.40;;;4.00;;
14007;SDS011;61651;45.508;12.232;2024-01-16T15:49:59;5.90;;;4.57;;
14007;SDS011;61651;45.508;12.232;2024-01-16T15:53:01;5.93;;;4.70;;
14007;SDS011;61651;45.508;12.232;2024-01-16T15:56:06;25.03;;;19.03;;
14007;SDS011;61651;45.508;12.232;2024-01-16T15:59:08;12.70;;;8.63;;
14007;SDS011;61651;45.508;12.232;2024-01-16T16:02:11;7.57;;;5.83;;
14007;SDS011;61651;45.508;12.232;2024-01-16T16:05:13;9.77;;;5.87;;
14007;SDS011;61651;45.508;12.232;2024-01-16T16:08:16;7.60;;;5.47;;
14007;SDS011;61651;45.508;12.232;2024-01-16T16:11:21;6.80;;;5.47;;
14007;SDS011;61651;45.508;12.232;2024-01-16T16:14:23;9.77;;;5.63;;
14007;SDS011;61651;45.508;12.232;2024-01-16T16:17:25;8.23;;;6.13;;
14007;SDS011;61651;45.508;12.232;2024-01-16T16:20:27;10.23;;;5.70;;
14007;SDS011;61651;45.508;12.232;2024-01-16T16:23:29;8.07;;;5.33;;
14007;SDS011;61651;45.508;12.232;2024-01-16T16:26:33;6.50;;;5.83;;
14007;SDS011;61651;45.508;12.232;2024-01-16T16:29:36;8.43;;;5.87;;
14007;SDS011;61651;45.508;12.232;2024-01-16T16:32:38;8.23;;;5.37;;
14007;SDS011;61651;45.508;12.232;2024-01-16T16:35:42;8.37;;;6.23;;
14007;SDS011;61651;45.508;12.232;2024-01-16T16:38:45;8.00;;;5.60;;
14007;SDS011;61651;45.508;12.232;2024-01-16T16:41:49;8.60;;;5.87;;
14007;SDS011;61651;45.508;12.232;2024-01-16T16:44:51;8.83;;;5.50;;
14007;SDS011;61651;45.508;12.232;2024-01-16T16:47:54;5.80;;;5.23;;
14007;SDS011;61651;45.508;12.232;2024-01-16T16:50:56;7.40;;;6.07;;
14007;SDS011;61651;45.508;12.232;2024-01-16T16:53:58;6.63;;;5.80;;
14007;SDS011;61651;45.508;12.232;2024-01-16T16:57:02;6.60;;;5.40;;
14007;SDS011;61651;45.508;12.232;2024-01-16T17:00:05;6.63;;;6.03;;
14007;SDS011;61651;45.508;12.232;2024-01-16T17:03:08;7.13;;;5.30;;
14007;SDS011;61651;45.508;12.232;2024-01-16T17:06:10;7.43;;;5.77;;
14007;SDS011;61651;45.508;12.232;2024-01-16T17:09:15;6.00;;;5.40;;
14007;SDS011;61651;45.508;12.232;2024-01-16T17:12:21;8.13;;;5.80;;
14007;SDS011;61651;45.508;12.232;2024-01-16T17:15:25;6.90;;;6.20;;
14007;SDS011;61651;45.508;12.232;2024-01-16T17:18:28;12.07;;;9.37;;
14007;SDS011;61651;45.508;12.232;2024-01-16T17:21:33;57.53;;;26.77;;
14007;SDS011;61651;45.508;12.232;2024-01-16T17:24:36;61.23;;;29.77;;
14007;SDS011;61651;45.508;12.232;2024-01-16T17:27:40;35.10;;;20.83;;
14007;SDS011;61651;45.508;12.232;2024-01-16T17:30:44;37.53;;;21.73;;
14007;SDS011;61651;45.508;12.232;2024-01-16T17:33:46;35.93;;;23.03;;
14007;SDS011;61651;45.508;12.232;2024-01-16T17:36:51;17.57;;;13.67;;
14007;SDS011;61651;45.508;12.232;2024-01-16T17:39:53;18.73;;;12.30;;
14007;SDS011;61651;45.508;12.232;2024-01-16T17:42:57;13.20;;;10.57;;
14007;SDS011;61651;45.508;12.232;2024-01-16T17:45:59;14.37;;;10.53;;
14007;SDS011;61651;45.508;12.232;2024-01-16T17:49:01;11.47;;;9.33;;
14007;SDS011;61651;45.508;12.232;2024-01-16T17:52:03;15.50;;;9.90;;
14007;SDS011;61651;45.508;12.232;2024-01-16T17:55:09;15.63;;;8.70;;
14007;SDS011;61651;45.508;12.232;2024-01-16T17:58:13;19.53;;;12.13;;